Terminal Aerodrome Forecast
Issued by NWS Wilmington, NC

Current Version | Previous Version | Graphics & Text | Print | Product List | Glossary Off
Versions: 1 2 3 4 5 6 7 8 9 10 11 12 13 14

000
FTUS42 KILM 032355 CCA
TAFFLO
TAF COR
KFLO 032355Z 0400/0424 12004KT P6SM VCSH SCT060 BKN250
     FM040400 24003KT 5SM BR BKN250
      TEMPO 0408/0412 00000KT 1SM BR SKC
     FM041300 35003KT P6SM SCT040 BKN150
     FM041900 05007KT P6SM VCSH SCT045 BKN120=

USA.gov is the U.S. government's official web portal to all federal, state and local government web resources and services.